sensor_id;sensor_type;location;lat;lon;timestamp;P1;durP1;ratioP1;P2;durP2;ratioP2
53903;SDS011;39812;52.430;16.936;2024-03-22T00:01:57;19.33;;;10.27;;
53903;SDS011;39812;52.430;16.936;2024-03-22T00:04:23;21.55;;;10.32;;
53903;SDS011;39812;52.430;16.936;2024-03-22T00:06:49;23.38;;;11.18;;
53903;SDS011;39812;52.430;16.936;2024-03-22T00:09:15;19.27;;;9.82;;
53903;SDS011;39812;52.430;16.936;2024-03-22T00:11:41;21.25;;;10.07;;
53903;SDS011;39812;52.430;16.936;2024-03-22T00:14:08;21.20;;;10.25;;
53903;SDS011;39812;52.430;16.936;2024-03-22T00:16:34;22.42;;;11.77;;
53903;SDS011;39812;52.430;16.936;2024-03-22T00:19:00;24.20;;;10.88;;
53903;SDS011;39812;52.430;16.936;2024-03-22T00:21:26;19.23;;;10.23;;
53903;SDS011;39812;52.430;16.936;2024-03-22T00:23:53;20.55;;;9.90;;
53903;SDS011;39812;52.430;16.936;2024-03-22T00:26:18;24.73;;;10.57;;
53903;SDS011;39812;52.430;16.936;2024-03-22T00:28:44;21.17;;;10.93;;
53903;SDS011;39812;52.430;16.936;2024-03-22T00:31:10;22.58;;;10.80;;
53903;SDS011;39812;52.430;16.936;2024-03-22T00:33:35;23.73;;;10.70;;
53903;SDS011;39812;52.430;16.936;2024-03-22T00:36:01;22.30;;;10.68;;
53903;SDS011;39812;52.430;16.936;2024-03-22T00:38:27;21.58;;;9.63;;
53903;SDS011;39812;52.430;16.936;2024-03-22T00:40:53;22.30;;;10.63;;
53903;SDS011;39812;52.430;16.936;2024-03-22T00:43:19;23.83;;;11.68;;
53903;SDS011;39812;52.430;16.936;2024-03-22T00:45:45;25.60;;;10.98;;
53903;SDS011;39812;52.430;16.936;2024-03-22T00:48:11;21.58;;;10.57;;
53903;SDS011;39812;52.430;16.936;2024-03-22T00:50:36;23.73;;;11.43;;
53903;SDS011;39812;52.430;16.936;2024-03-22T00:53:02;20.27;;;10.57;;
53903;SDS011;39812;52.430;16.936;2024-03-22T00:55:28;26.20;;;11.63;;
53903;SDS011;39812;52.430;16.936;2024-03-22T00:57:54;27.08;;;11.98;;
53903;SDS011;39812;52.430;16.936;2024-03-22T01:00:20;22.17;;;11.85;;
53903;SDS011;39812;52.430;16.936;2024-03-22T01:02:45;23.52;;;11.75;;
53903;SDS011;39812;52.430;16.936;2024-03-22T01:05:11;20.50;;;10.65;;
53903;SDS011;39812;52.430;16.936;2024-03-22T01:07:37;24.05;;;11.25;;
53903;SDS011;39812;52.430;16.936;2024-03-22T01:10:03;21.60;;;11.38;;
53903;SDS011;39812;52.430;16.936;2024-03-22T01:12:29;24.25;;;11.80;;
53903;SDS011;39812;52.430;16.936;2024-03-22T01:14:55;21.08;;;10.10;;
53903;SDS011;39812;52.430;16.936;2024-03-22T01:17:20;23.10;;;11.23;;
53903;SDS011;39812;52.430;16.936;2024-03-22T01:19:46;23.73;;;11.80;;
53903;SDS011;39812;52.430;16.936;2024-03-22T01:22:11;22.42;;;11.50;;
53903;SDS011;39812;52.430;16.936;2024-03-22T01:24:37;22.65;;;11.77;;
53903;SDS011;39812;52.430;16.936;2024-03-22T01:27:03;20.67;;;10.63;;
53903;SDS011;39812;52.430;16.936;2024-03-22T01:29:29;24.00;;;11.30;;
53903;SDS011;39812;52.430;16.936;2024-03-22T01:31:57;22.15;;;11.63;;
53903;SDS011;39812;52.430;16.936;2024-03-22T01:34:23;22.50;;;10.98;;
53903;SDS011;39812;52.430;16.936;2024-03-22T01:36:48;20.90;;;10.00;;
53903;SDS011;39812;52.430;16.936;2024-03-22T01:39:14;21.15;;;10.77;;
53903;SDS011;39812;52.430;16.936;2024-03-22T01:41:40;18.90;;;10.82;;
53903;SDS011;39812;52.430;16.936;2024-03-22T01:44:06;21.42;;;11.23;;
53903;SDS011;39812;52.430;16.936;2024-03-22T01:46:32;15.50;;;9.20;;
53903;SDS011;39812;52.430;16.936;2024-03-22T01:48:57;21.27;;;11.05;;
53903;SDS011;39812;52.430;16.936;2024-03-22T01:51:23;19.70;;;9.75;;
53903;SDS011;39812;52.430;16.936;2024-03-22T01:53:49;18.38;;;10.50;;
53903;SDS011;39812;52.430;16.936;2024-03-22T01:56:15;18.35;;;9.95;;
53903;SDS011;39812;52.430;16.936;2024-03-22T01:58:40;20.98;;;9.85;;
53903;SDS011;39812;52.430;16.936;2024-03-22T02:01:07;19.00;;;9.35;;
53903;SDS011;39812;52.430;16.936;2024-03-22T02:03:33;18.65;;;9.32;;
53903;SDS011;39812;52.430;16.936;2024-03-22T02:05:58;20.67;;;10.30;;
53903;SDS011;39812;52.430;16.936;2024-03-22T02:08:24;21.92;;;9.98;;
53903;SDS011;39812;52.430;16.936;2024-03-22T02:10:49;20.95;;;10.65;;
53903;SDS011;39812;52.430;16.936;2024-03-22T02:13:15;21.52;;;10.45;;
53903;SDS011;39812;52.430;16.936;2024-03-22T02:15:41;15.65;;;8.85;;
53903;SDS011;39812;52.430;16.936;2024-03-22T02:18:07;20.70;;;10.13;;
53903;SDS011;39812;52.430;16.936;2024-03-22T02:20:32;18.33;;;9.70;;
53903;SDS011;39812;52.430;16.936;2024-03-22T02:22:58;22.45;;;10.75;;
53903;SDS011;39812;52.430;16.936;2024-03-22T02:25:23;18.50;;;10.00;;
53903;SDS011;39812;52.430;16.936;2024-03-22T02:27:49;19.70;;;9.27;;
53903;SDS011;39812;52.430;16.936;2024-03-22T02:30:15;18.90;;;9.65;;
53903;SDS011;39812;52.430;16.936;2024-03-22T02:32:42;18.83;;;10.18;;
53903;SDS011;39812;52.430;16.936;2024-03-22T02:35:08;23.25;;;9.77;;
53903;SDS011;39812;52.430;16.936;2024-03-22T02:37:34;20.75;;;10.70;;
53903;SDS011;39812;52.430;16.936;2024-03-22T02:39:59;18.92;;;9.80;;
53903;SDS011;39812;52.430;16.936;2024-03-22T02:42:25;22.58;;;10.48;;
53903;SDS011;39812;52.430;16.936;2024-03-22T02:44:51;18.73;;;10.32;;
53903;SDS011;39812;52.430;16.936;2024-03-22T02:47:17;20.63;;;9.90;;
53903;SDS011;39812;52.430;16.936;2024-03-22T02:49:43;20.65;;;8.68;;
53903;SDS011;39812;52.430;16.936;2024-03-22T02:52:08;18.73;;;10.00;;
53903;SDS011;39812;52.430;16.936;2024-03-22T02:54:34;19.70;;;10.60;;
53903;SDS011;39812;52.430;16.936;2024-03-22T02:57:00;20.23;;;9.23;;
53903;SDS011;39812;52.430;16.936;2024-03-22T02:59:26;18.60;;;8.85;;
53903;SDS011;39812;52.430;16.936;2024-03-22T03:01:52;18.02;;;9.05;;
53903;SDS011;39812;52.430;16.936;2024-03-22T03:04:18;18.73;;;9.57;;
53903;SDS011;39812;52.430;16.936;2024-03-22T03:06:43;21.05;;;9.52;;
53903;SDS011;39812;52.430;16.936;2024-03-22T03:09:10;19.13;;;10.23;;
53903;SDS011;39812;52.430;16.936;2024-03-22T03:11:37;24.30;;;10.50;;
53903;SDS011;39812;52.430;16.936;2024-03-22T03:14:04;20.63;;;10.65;;
53903;SDS011;39812;52.430;16.936;2024-03-22T03:16:30;18.73;;;9.75;;
53903;SDS011;39812;52.430;16.936;2024-03-22T03:18:56;19.90;;;10.10;;
53903;SDS011;39812;52.430;16.936;2024-03-22T03:21:21;21.60;;;10.90;;
53903;SDS011;39812;52.430;16.936;2024-03-22T03:23:47;16.65;;;9.07;;
53903;SDS011;39812;52.430;16.936;2024-03-22T03:26:13;15.05;;;8.38;;
53903;SDS011;39812;52.430;16.936;2024-03-22T03:28:38;22.13;;;11.57;;
53903;SDS011;39812;52.430;16.936;2024-03-22T03:31:04;21.73;;;11.27;;
53903;SDS011;39812;52.430;16.936;2024-03-22T03:33:30;20.77;;;10.65;;
53903;SDS011;39812;52.430;16.936;2024-03-22T03:35:55;19.13;;;9.35;;
53903;SDS011;39812;52.430;16.936;2024-03-22T03:38:21;23.88;;;10.02;;
53903;SDS011;39812;52.430;16.936;2024-03-22T03:40:47;18.95;;;9.98;;
53903;SDS011;39812;52.430;16.936;2024-03-22T03:43:13;20.88;;;9.80;;
53903;SDS011;39812;52.430;16.936;2024-03-22T03:45:39;22.35;;;9.70;;
53903;SDS011;39812;52.430;16.936;2024-03-22T03:48:04;17.50;;;8.93;;
53903;SDS011;39812;52.430;16.936;2024-03-22T03:50:30;16.67;;;8.65;;
53903;SDS011;39812;52.430;16.936;2024-03-22T03:52:56;21.23;;;9.18;;
53903;SDS011;39812;52.430;16.936;2024-03-22T03:55:22;22.40;;;10.02;;
53903;SDS011;39812;52.430;16.936;2024-03-22T03:57:49;18.05;;;9.20;;
53903;SDS011;39812;52.430;16.936;2024-03-22T04:00:15;17.48;;;7.93;;
53903;SDS011;39812;52.430;16.936;2024-03-22T04:02:41;17.52;;;8.98;;
53903;SDS011;39812;52.430;16.936;2024-03-22T04:05:06;19.02;;;9.55;;
53903;SDS011;39812;52.430;16.936;2024-03-22T04:07:32;19.25;;;8.85;;
53903;SDS011;39812;52.430;16.936;2024-03-22T04:09:58;16.40;;;8.23;;
53903;SDS011;39812;52.430;16.936;2024-03-22T04:12:25;14.45;;;8.43;;
53903;SDS011;39812;52.430;16.936;2024-03-22T04:14:51;20.58;;;8.85;;
53903;SDS011;39812;52.430;16.936;2024-03-22T04:17:17;22.65;;;9.60;;
53903;SDS011;39812;52.430;16.936;2024-03-22T04:19:43;23.00;;;8.68;;
53903;SDS011;39812;52.430;16.936;2024-03-22T04:22:08;19.80;;;9.93;;
53903;SDS011;39812;52.430;16.936;2024-03-22T04:24:34;17.80;;;8.32;;
53903;SDS011;39812;52.430;16.936;2024-03-22T04:27:00;16.17;;;7.50;;
53903;SDS011;39812;52.430;16.936;2024-03-22T04:29:26;13.40;;;6.78;;
53903;SDS011;39812;52.430;16.936;2024-03-22T04:31:52;18.02;;;8.65;;
53903;SDS011;39812;52.430;16.936;2024-03-22T04:34:18;17.75;;;8.95;;
53903;SDS011;39812;52.430;16.936;2024-03-22T04:36:43;17.38;;;8.25;;
53903;SDS011;39812;52.430;16.936;2024-03-22T04:39:09;19.40;;;8.80;;
53903;SDS011;39812;52.430;16.936;2024-03-22T04:41:37;22.58;;;10.13;;
53903;SDS011;39812;52.430;16.936;2024-03-22T04:44:03;24.23;;;9.13;;
53903;SDS011;39812;52.430;16.936;2024-03-22T04:46:28;19.98;;;9.27;;
53903;SDS011;39812;52.430;16.936;2024-03-22T04:48:54;20.38;;;9.88;;
53903;SDS011;39812;52.430;16.936;2024-03-22T04:51:20;22.35;;;9.35;;
53903;SDS011;39812;52.430;16.936;2024-03-22T04:53:46;19.60;;;9.82;;
53903;SDS011;39812;52.430;16.936;2024-03-22T04:56:11;18.75;;;7.85;;
53903;SDS011;39812;52.430;16.936;2024-03-22T04:58:37;23.58;;;9.70;;
53903;SDS011;39812;52.430;16.936;2024-03-22T05:01:03;23.83;;;9.40;;
53903;SDS011;39812;52.430;16.936;2024-03-22T05:03:29;23.95;;;9.77;;
53903;SDS011;39812;52.430;16.936;2024-03-22T05:05:54;19.27;;;8.55;;
53903;SDS011;39812;52.430;16.936;2024-03-22T05:08:21;23.15;;;9.32;;
53903;SDS011;39812;52.430;16.936;2024-03-22T05:10:46;26.63;;;9.52;;
53903;SDS011;39812;52.430;16.936;2024-03-22T05:13:13;22.98;;;9.25;;
53903;SDS011;39812;52.430;16.936;2024-03-22T05:15:39;24.60;;;10.13;;
53903;SDS011;39812;52.430;16.936;2024-03-22T05:18:05;22.27;;;9.43;;
53903;SDS011;39812;52.430;16.936;2024-03-22T05:20:30;24.98;;;8.77;;
53903;SDS011;39812;52.430;16.936;2024-03-22T05:22:56;27.83;;;12.07;;
53903;SDS011;39812;52.430;16.936;2024-03-22T05:25:22;27.25;;;10.30;;
53903;SDS011;39812;52.430;16.936;2024-03-22T05:27:48;31.00;;;11.75;;
53903;SDS011;39812;52.430;16.936;2024-03-22T05:30:13;29.38;;;10.55;;
53903;SDS011;39812;52.430;16.936;2024-03-22T05:32:39;31.58;;;12.57;;
53903;SDS011;39812;52.430;16.936;2024-03-22T05:35:05;34.90;;;13.90;;
53903;SDS011;39812;52.430;16.936;2024-03-22T05:37:32;35.70;;;14.10;;
53903;SDS011;39812;52.430;16.936;2024-03-22T05:39:59;29.92;;;12.70;;
53903;SDS011;39812;52.430;16.936;2024-03-22T05:42:25;39.17;;;14.05;;
53903;SDS011;39812;52.430;16.936;2024-03-22T05:44:51;42.03;;;13.52;;
53903;SDS011;39812;52.430;16.936;2024-03-22T05:47:17;36.45;;;13.82;;
53903;SDS011;39812;52.430;16.936;2024-03-22T05:49:43;36.72;;;13.25;;
53903;SDS011;39812;52.430;16.936;2024-03-22T05:52:09;36.15;;;14.38;;
53903;SDS011;39812;52.430;16.936;2024-03-22T05:54:35;42.40;;;13.88;;
53903;SDS011;39812;52.430;16.936;2024-03-22T05:57:00;39.30;;;14.15;;
53903;SDS011;39812;52.430;16.936;2024-03-22T05:59:27;40.38;;;13.82;;
53903;SDS011;39812;52.430;16.936;2024-03-22T06:01:52;38.72;;;13.93;;
53903;SDS011;39812;52.430;16.936;2024-03-22T06:04:18;35.90;;;13.57;;
53903;SDS011;39812;52.430;16.936;2024-03-22T06:06:43;40.53;;;14.57;;
53903;SDS011;39812;52.430;16.936;2024-03-22T06:09:09;36.78;;;13.40;;
53903;SDS011;39812;52.430;16.936;2024-03-22T06:11:36;35.03;;;13.85;;
53903;SDS011;39812;52.430;16.936;2024-03-22T06:14:02;39.08;;;14.85;;
53903;SDS011;39812;52.430;16.936;2024-03-22T06:16:27;36.72;;;13.68;;
53903;SDS011;39812;52.430;16.936;2024-03-22T06:18:53;42.20;;;15.55;;
53903;SDS011;39812;52.430;16.936;2024-03-22T06:21:19;37.97;;;13.40;;
53903;SDS011;39812;52.430;16.936;2024-03-22T06:23:49;35.08;;;13.90;;
53903;SDS011;39812;52.430;16.936;2024-03-22T06:26:15;31.48;;;11.80;;
53903;SDS011;39812;52.430;16.936;2024-03-22T06:28:40;29.83;;;13.63;;
53903;SDS011;39812;52.430;16.936;2024-03-22T06:31:06;30.60;;;13.57;;
53903;SDS011;39812;52.430;16.936;2024-03-22T06:33:32;32.55;;;13.13;;
53903;SDS011;39812;52.430;16.936;2024-03-22T06:35:58;26.45;;;12.00;;
53903;SDS011;39812;52.430;16.936;2024-03-22T06:38:24;29.50;;;12.93;;
53903;SDS011;39812;52.430;16.936;2024-03-22T06:40:50;28.70;;;12.90;;
53903;SDS011;39812;52.430;16.936;2024-03-22T06:43:16;34.45;;;14.15;;
53903;SDS011;39812;52.430;16.936;2024-03-22T06:45:42;31.48;;;11.13;;
53903;SDS011;39812;52.430;16.936;2024-03-22T06:48:08;32.10;;;13.63;;
53903;SDS011;39812;52.430;16.936;2024-03-22T06:50:33;27.92;;;12.40;;
53903;SDS011;39812;52.430;16.936;2024-03-22T06:52:59;29.50;;;12.48;;
53903;SDS011;39812;52.430;16.936;2024-03-22T06:55:24;28.88;;;12.55;;
53903;SDS011;39812;52.430;16.936;2024-03-22T06:57:50;32.85;;;13.00;;
53903;SDS011;39812;52.430;16.936;2024-03-22T07:00:17;32.00;;;13.60;;
53903;SDS011;39812;52.430;16.936;2024-03-22T07:02:43;30.90;;;13.10;;
53903;SDS011;39812;52.430;16.936;2024-03-22T07:05:09;30.50;;;13.05;;
53903;SDS011;39812;52.430;16.936;2024-03-22T07:07:36;32.78;;;13.48;;
53903;SDS011;39812;52.430;16.936;2024-03-22T07:10:02;28.58;;;12.23;;
53903;SDS011;39812;52.430;16.936;2024-03-22T07:12:28;30.88;;;13.73;;
53903;SDS011;39812;52.430;16.936;2024-03-22T07:14:55;38.25;;;16.65;;
53903;SDS011;39812;52.430;16.936;2024-03-22T07:17:21;37.72;;;15.95;;
53903;SDS011;39812;52.430;16.936;2024-03-22T07:19:50;38.42;;;16.58;;
53903;SDS011;39812;52.430;16.936;2024-03-22T07:22:16;32.55;;;15.05;;
53903;SDS011;39812;52.430;16.936;2024-03-22T07:24:42;36.90;;;14.63;;
53903;SDS011;39812;52.430;16.936;2024-03-22T07:27:07;31.33;;;13.43;;
53903;SDS011;39812;52.430;16.936;2024-03-22T07:29:33;30.45;;;12.98;;
53903;SDS011;39812;52.430;16.936;2024-03-22T07:31:58;27.73;;;11.90;;
53903;SDS011;39812;52.430;16.936;2024-03-22T07:34:24;25.65;;;13.25;;
53903;SDS011;39812;52.430;16.936;2024-03-22T07:36:50;20.85;;;10.57;;
53903;SDS011;39812;52.430;16.936;2024-03-22T07:39:15;25.27;;;11.43;;
53903;SDS011;39812;52.430;16.936;2024-03-22T07:41:41;26.05;;;11.45;;
53903;SDS011;39812;52.430;16.936;2024-03-22T07:44:07;24.45;;;11.27;;
53903;SDS011;39812;52.430;16.936;2024-03-22T07:46:32;27.65;;;11.65;;
53903;SDS011;39812;52.430;16.936;2024-03-22T07:48:58;22.55;;;9.98;;
53903;SDS011;39812;52.430;16.936;2024-03-22T07:51:24;26.52;;;11.32;;
53903;SDS011;39812;52.430;16.936;2024-03-22T07:53:50;24.02;;;12.18;;
53903;SDS011;39812;52.430;16.936;2024-03-22T07:56:17;19.58;;;10.13;;
53903;SDS011;39812;52.430;16.936;2024-03-22T07:58:44;23.08;;;10.48;;
53903;SDS011;39812;52.430;16.936;2024-03-22T08:01:10;23.65;;;10.90;;
53903;SDS011;39812;52.430;16.936;2024-03-22T08:03:35;21.55;;;10.93;;
53903;SDS011;39812;52.430;16.936;2024-03-22T08:06:01;18.77;;;9.48;;
53903;SDS011;39812;52.430;16.936;2024-03-22T08:08:27;22.02;;;10.43;;
53903;SDS011;39812;52.430;16.936;2024-03-22T08:10:52;17.95;;;9.15;;
53903;SDS011;39812;52.430;16.936;2024-03-22T08:13:18;19.15;;;10.43;;
53903;SDS011;39812;52.430;16.936;2024-03-22T08:15:44;22.52;;;9.95;;
53903;SDS011;39812;52.430;16.936;2024-03-22T08:18:11;20.90;;;9.05;;
53903;SDS011;39812;52.430;16.936;2024-03-22T08:20:37;27.00;;;12.73;;
53903;SDS011;39812;52.430;16.936;2024-03-22T08:23:04;22.30;;;9.73;;
53903;SDS011;39812;52.430;16.936;2024-03-22T08:25:30;23.48;;;10.25;;
53903;SDS011;39812;52.430;16.936;2024-03-22T08:27:55;27.40;;;10.77;;
53903;SDS011;39812;52.430;16.936;2024-03-22T08:30:23;21.85;;;9.82;;
53903;SDS011;39812;52.430;16.936;2024-03-22T08:32:50;22.45;;;10.20;;
53903;SDS011;39812;52.430;16.936;2024-03-22T08:35:16;21.27;;;10.30;;
53903;SDS011;39812;52.430;16.936;2024-03-22T08:37:42;22.52;;;11.45;;
53903;SDS011;39812;52.430;16.936;2024-03-22T08:40:08;22.13;;;11.27;;
53903;SDS011;39812;52.430;16.936;2024-03-22T08:42:35;20.17;;;10.18;;
53903;SDS011;39812;52.430;16.936;2024-03-22T08:45:01;24.30;;;11.00;;
53903;SDS011;39812;52.430;16.936;2024-03-22T08:47:29;21.50;;;9.65;;
53903;SDS011;39812;52.430;16.936;2024-03-22T08:49:55;19.60;;;10.23;;
53903;SDS011;39812;52.430;16.936;2024-03-22T08:52:22;19.27;;;9.80;;
53903;SDS011;39812;52.430;16.936;2024-03-22T08:54:49;21.52;;;10.23;;
53903;SDS011;39812;52.430;16.936;2024-03-22T08:57:15;21.63;;;9.57;;
53903;SDS011;39812;52.430;16.936;2024-03-22T08:59:41;19.35;;;10.02;;
53903;SDS011;39812;52.430;16.936;2024-03-22T09:02:07;20.10;;;10.43;;
53903;SDS011;39812;52.430;16.936;2024-03-22T09:04:32;20.13;;;9.80;;
53903;SDS011;39812;52.430;16.936;2024-03-22T09:06:58;20.23;;;9.77;;
53903;SDS011;39812;52.430;16.936;2024-03-22T09:09:24;21.13;;;10.95;;
53903;SDS011;39812;52.430;16.936;2024-03-22T09:11:49;19.05;;;8.82;;
53903;SDS011;39812;52.430;16.936;2024-03-22T09:14:15;19.92;;;9.63;;
53903;SDS011;39812;52.430;16.936;2024-03-22T09:16:42;21.35;;;11.23;;
53903;SDS011;39812;52.430;16.936;2024-03-22T09:19:07;24.08;;;10.88;;
53903;SDS011;39812;52.430;16.936;2024-03-22T09:21:33;25.20;;;11.20;;
53903;SDS011;39812;52.430;16.936;2024-03-22T09:23:59;21.55;;;11.23;;
53903;SDS011;39812;52.430;16.936;2024-03-22T09:26:24;22.95;;;10.18;;
53903;SDS011;39812;52.430;16.936;2024-03-22T09:28:50;21.52;;;9.70;;
53903;SDS011;39812;52.430;16.936;2024-03-22T09:31:16;19.75;;;9.73;;
53903;SDS011;39812;52.430;16.936;2024-03-22T09:33:42;18.67;;;8.90;;
53903;SDS011;39812;52.430;16.936;2024-03-22T09:36:08;22.17;;;10.60;;
53903;SDS011;39812;52.430;16.936;2024-03-22T09:38:34;20.25;;;10.82;;
53903;SDS011;39812;52.430;16.936;2024-03-22T09:41:00;22.67;;;10.63;;
53903;SDS011;39812;52.430;16.936;2024-03-22T09:43:29;18.25;;;11.10;;
53903;SDS011;39812;52.430;16.936;2024-03-22T09:45:57;21.15;;;10.57;;
53903;SDS011;39812;52.430;16.936;2024-03-22T09:48:23;21.33;;;10.95;;
53903;SDS011;39812;52.430;16.936;2024-03-22T09:50:50;21.10;;;10.23;;
53903;SDS011;39812;52.430;16.936;2024-03-22T09:53:18;20.67;;;10.27;;
53903;SDS011;39812;52.430;16.936;2024-03-22T09:55:47;26.20;;;13.00;;
53903;SDS011;39812;52.430;16.936;2024-03-22T09:58:14;23.25;;;10.55;;
53903;SDS011;39812;52.430;16.936;2024-03-22T10:00:41;18.85;;;10.80;;
53903;SDS011;39812;52.430;16.936;2024-03-22T10:03:07;22.65;;;10.98;;
53903;SDS011;39812;52.430;16.936;2024-03-22T10:05:34;19.67;;;10.23;;
53903;SDS011;39812;52.430;16.936;2024-03-22T10:08:00;22.38;;;11.48;;
53903;SDS011;39812;52.430;16.936;2024-03-22T10:10:26;23.50;;;10.80;;
53903;SDS011;39812;52.430;16.936;2024-03-22T10:12:52;17.73;;;8.98;;
53903;SDS011;39812;52.430;16.936;2024-03-22T10:15:18;22.95;;;12.02;;
53903;SDS011;39812;52.430;16.936;2024-03-22T10:17:44;16.98;;;10.30;;
53903;SDS011;39812;52.430;16.936;2024-03-22T10:20:12;19.10;;;9.00;;
53903;SDS011;39812;52.430;16.936;2024-03-22T10:22:48;19.55;;;10.93;;
53903;SDS011;39812;52.430;16.936;2024-03-22T10:25:19;22.02;;;10.35;;
53903;SDS011;39812;52.430;16.936;2024-03-22T10:27:45;19.17;;;9.45;;
53903;SDS011;39812;52.430;16.936;2024-03-22T10:30:11;17.95;;;9.20;;
53903;SDS011;39812;52.430;16.936;2024-03-22T10:32:40;21.08;;;9.50;;
53903;SDS011;39812;52.430;16.936;2024-03-22T10:35:07;17.40;;;9.23;;
53903;SDS011;39812;52.430;16.936;2024-03-22T10:37:39;19.80;;;9.32;;
53903;SDS011;39812;52.430;16.936;2024-03-22T10:40:05;20.80;;;10.13;;
53903;SDS011;39812;52.430;16.936;2024-03-22T10:42:35;18.55;;;9.75;;
53903;SDS011;39812;52.430;16.936;2024-03-22T10:45:19;19.23;;;9.73;;
53903;SDS011;39812;52.430;16.936;2024-03-22T10:47:50;17.75;;;8.48;;
53903;SDS011;39812;52.430;16.936;2024-03-22T10:50:20;18.70;;;9.07;;
53903;SDS011;39812;52.430;16.936;2024-03-22T10:52:51;18.15;;;7.93;;
53903;SDS011;39812;52.430;16.936;2024-03-22T10:55:24;16.13;;;9.80;;
53903;SDS011;39812;52.430;16.936;2024-03-22T10:57:55;13.60;;;8.07;;
53903;SDS011;39812;52.430;16.936;2024-03-22T11:00:31;19.70;;;9.57;;
53903;SDS011;39812;52.430;16.936;2024-03-22T11:02:58;18.73;;;9.32;;
53903;SDS011;39812;52.430;16.936;2024-03-22T11:05:27;19.55;;;9.32;;
53903;SDS011;39812;52.430;16.936;2024-03-22T11:07:59;17.85;;;9.27;;
53903;SDS011;39812;52.430;16.936;2024-03-22T11:10:29;15.85;;;8.63;;
53903;SDS011;39812;52.430;16.936;2024-03-22T11:13:00;18.52;;;9.30;;
53903;SDS011;39812;52.430;16.936;2024-03-22T11:15:30;20.73;;;10.75;;
53903;SDS011;39812;52.430;16.936;2024-03-22T11:17:56;18.85;;;9.02;;
53903;SDS011;39812;52.430;16.936;2024-03-22T11:20:22;18.17;;;8.43;;
53903;SDS011;39812;52.430;16.936;2024-03-22T11:22:48;18.83;;;9.00;;
53903;SDS011;39812;52.430;16.936;2024-03-22T11:25:15;17.45;;;9.50;;
53903;SDS011;39812;52.430;16.936;2024-03-22T11:27:41;18.70;;;8.90;;
53903;SDS011;39812;52.430;16.936;2024-03-22T11:30:07;18.95;;;9.60;;
53903;SDS011;39812;52.430;16.936;2024-03-22T11:32:33;18.58;;;9.48;;
53903;SDS011;39812;52.430;16.936;2024-03-22T11:35:07;21.92;;;9.63;;
53903;SDS011;39812;52.430;16.936;2024-03-22T11:37:34;18.33;;;10.05;;
53903;SDS011;39812;52.430;16.936;2024-03-22T11:40:00;20.95;;;9.45;;
53903;SDS011;39812;52.430;16.936;2024-03-22T11:42:30;20.10;;;9.90;;
53903;SDS011;39812;52.430;16.936;2024-03-22T11:44:56;16.83;;;8.63;;
53903;SDS011;39812;52.430;16.936;2024-03-22T11:47:22;17.15;;;9.35;;
53903;SDS011;39812;52.430;16.936;2024-03-22T11:49:48;16.98;;;8.98;;
53903;SDS011;39812;52.430;16.936;2024-03-22T11:52:13;20.15;;;9.50;;
53903;SDS011;39812;52.430;16.936;2024-03-22T11:54:40;20.27;;;9.93;;
53903;SDS011;39812;52.430;16.936;2024-03-22T11:57:05;18.52;;;8.15;;
53903;SDS011;39812;52.430;16.936;2024-03-22T11:59:33;17.88;;;9.73;;
53903;SDS011;39812;52.430;16.936;2024-03-22T12:01:59;15.70;;;8.52;;
53903;SDS011;39812;52.430;16.936;2024-03-22T12:04:25;16.23;;;8.85;;
53903;SDS011;39812;52.430;16.936;2024-03-22T12:06:50;18.17;;;9.35;;
53903;SDS011;39812;52.430;16.936;2024-03-22T12:09:18;16.48;;;8.55;;
53903;SDS011;39812;52.430;16.936;2024-03-22T12:11:44;19.98;;;8.93;;
53903;SDS011;39812;52.430;16.936;2024-03-22T12:14:09;16.85;;;8.77;;
53903;SDS011;39812;52.430;16.936;2024-03-22T12:16:35;18.13;;;9.13;;
53903;SDS011;39812;52.430;16.936;2024-03-22T12:19:01;18.25;;;8.60;;
53903;SDS011;39812;52.430;16.936;2024-03-22T12:21:28;15.90;;;7.32;;
53903;SDS011;39812;52.430;16.936;2024-03-22T12:23:53;13.00;;;7.72;;
53903;SDS011;39812;52.430;16.936;2024-03-22T12:26:19;17.80;;;9.40;;
53903;SDS011;39812;52.430;16.936;2024-03-22T12:28:45;15.48;;;8.00;;
53903;SDS011;39812;52.430;16.936;2024-03-22T12:31:11;19.05;;;8.00;;
53903;SDS011;39812;52.430;16.936;2024-03-22T12:33:37;15.45;;;8.48;;
53903;SDS011;39812;52.430;16.936;2024-03-22T12:36:03;18.33;;;8.30;;
53903;SDS011;39812;52.430;16.936;2024-03-22T12:38:29;19.70;;;9.10;;
53903;SDS011;39812;52.430;16.936;2024-03-22T12:40:55;19.08;;;8.50;;
53903;SDS011;39812;52.430;16.936;2024-03-22T12:43:21;15.13;;;8.73;;
53903;SDS011;39812;52.430;16.936;2024-03-22T12:45:46;16.02;;;8.32;;
53903;SDS011;39812;52.430;16.936;2024-03-22T12:48:12;20.27;;;8.82;;
53903;SDS011;39812;52.430;16.936;2024-03-22T12:50:38;21.38;;;10.30;;
53903;SDS011;39812;52.430;16.936;2024-03-22T12:53:04;19.98;;;8.40;;
53903;SDS011;39812;52.430;16.936;2024-03-22T12:55:30;18.15;;;9.38;;
53903;SDS011;39812;52.430;16.936;2024-03-22T12:57:56;19.13;;;8.23;;
53903;SDS011;39812;52.430;16.936;2024-03-22T13:00:23;15.00;;;7.80;;
53903;SDS011;39812;52.430;16.936;2024-03-22T13:02:49;20.10;;;8.90;;
53903;SDS011;39812;52.430;16.936;2024-03-22T13:05:15;17.05;;;8.13;;
53903;SDS011;39812;52.430;16.936;2024-03-22T13:07:41;18.95;;;9.48;;
53903;SDS011;39812;52.430;16.936;2024-03-22T13:10:07;19.65;;;8.02;;
53903;SDS011;39812;52.430;16.936;2024-03-22T13:12:33;20.35;;;8.90;;
53903;SDS011;39812;52.430;16.936;2024-03-22T13:14:59;18.95;;;10.13;;
53903;SDS011;39812;52.430;16.936;2024-03-22T13:17:25;16.77;;;8.32;;
53903;SDS011;39812;52.430;16.936;2024-03-22T13:19:51;16.58;;;8.35;;
53903;SDS011;39812;52.430;16.936;2024-03-22T13:22:17;20.08;;;7.80;;
53903;SDS011;39812;52.430;16.936;2024-03-22T13:24:46;20.13;;;8.35;;
53903;SDS011;39812;52.430;16.936;2024-03-22T13:27:12;19.83;;;8.93;;
53903;SDS011;39812;52.430;16.936;2024-03-22T13:29:39;19.50;;;8.27;;
53903;SDS011;39812;52.430;16.936;2024-03-22T13:32:05;20.10;;;9.70;;
53903;SDS011;39812;52.430;16.936;2024-03-22T13:34:32;18.48;;;9.52;;
53903;SDS011;39812;52.430;16.936;2024-03-22T13:36:58;19.85;;;8.55;;
53903;SDS011;39812;52.430;16.936;2024-03-22T13:39:25;18.45;;;8.55;;
53903;SDS011;39812;52.430;16.936;2024-03-22T13:41:50;18.90;;;9.30;;
53903;SDS011;39812;52.430;16.936;2024-03-22T13:44:16;16.83;;;8.05;;
53903;SDS011;39812;52.430;16.936;2024-03-22T13:46:41;16.52;;;8.70;;
53903;SDS011;39812;52.430;16.936;2024-03-22T13:49:16;20.35;;;9.07;;
53903;SDS011;39812;52.430;16.936;2024-03-22T13:51:43;17.55;;;8.20;;
53903;SDS011;39812;52.430;16.936;2024-03-22T13:54:09;17.20;;;8.15;;
53903;SDS011;39812;52.430;16.936;2024-03-22T13:56:35;16.88;;;9.20;;
53903;SDS011;39812;52.430;16.936;2024-03-22T13:59:02;19.60;;;9.35;;
53903;SDS011;39812;52.430;16.936;2024-03-22T14:01:30;20.23;;;9.52;;
53903;SDS011;39812;52.430;16.936;2024-03-22T14:03:56;20.02;;;8.68;;
53903;SDS011;39812;52.430;16.936;2024-03-22T14:06:22;20.17;;;8.95;;
53903;SDS011;39812;52.430;16.936;2024-03-22T14:08:47;19.60;;;8.52;;
53903;SDS011;39812;52.430;16.936;2024-03-22T14:11:13;19.08;;;9.98;;